Time;durP1;ratioP1;P1;durP2;ratioP2;P2;SDS_P1;SDS_P2;PMS_P1;PMS_P2;Temp;Humidity;BMP_temperature;BMP_pressure;BME280_temperature;BME280_humidity;BME280_pressure;Samples;Min_cycle;Max_cycle;Signal;HPM_P1;HPM_P2
2023/12/14 00:02:01;;;;;;;0.30;0.30;;;3.20;99.90;;;;;;5033322;28;20182;-80
2023/12/14 00:04:27;;;;;;;0.30;0.30;;;3.20;99.90;;;;;;5012112;28;20175;-80
2023/12/14 00:06:52;;;;;;;0.30;0.30;;;3.20;99.90;;;;;;5029764;28;20198;-80
2023/12/14 00:09:18;;;;;;;0.30;0.30;;;3.20;99.90;;;;;;5029955;28;20306;-80
2023/12/14 00:11:43;;;;;;;0.40;0.40;;;3.20;99.90;;;;;;4995197;28;20196;-80
2023/12/14 00:14:09;;;;;;;0.30;0.30;;;3.20;99.90;;;;;;5010195;28;20309;-80
2023/12/14 00:16:34;;;;;;;0.30;0.30;;;3.20;99.90;;;;;;5040256;28;20669;-79
2023/12/14 00:19:00;;;;;;;0.40;0.40;;;3.20;99.90;;;;;;5032196;28;20229;-79
2023/12/14 00:21:26;;;;;;;0.30;0.30;;;3.20;99.90;;;;;;5037910;28;20202;-80
2023/12/14 00:23:51;;;;;;;0.37;0.37;;;3.30;99.90;;;;;;5036246;28;20191;-80
2023/12/14 00:26:17;;;;;;;0.37;0.37;;;3.20;99.90;;;;;;5021285;28;20198;-79
2023/12/14 00:28:43;;;;;;;0.20;0.20;;;3.20;99.90;;;;;;5016932;28;20517;-80
2023/12/14 00:31:08;;;;;;;0.30;0.30;;;3.30;99.90;;;;;;5036234;28;20192;-79
2023/12/14 00:33:34;;;;;;;0.30;0.30;;;3.30;99.90;;;;;;5031028;28;20751;-80
2023/12/14 00:35:59;;;;;;;0.30;0.30;;;3.20;99.90;;;;;;5041260;28;20205;-80
2023/12/14 00:38:25;;;;;;;0.23;0.23;;;3.30;99.90;;;;;;5030277;28;20184;-79
2023/12/14 00:40:50;;;;;;;0.30;0.30;;;3.30;99.90;;;;;;5029868;28;20218;-80
2023/12/14 00:43:16;;;;;;;0.30;0.30;;;3.30;99.90;;;;;;5030784;28;20279;-80
2023/12/14 00:45:42;;;;;;;0.30;0.30;;;3.30;99.90;;;;;;5045858;28;20210;-80
2023/12/14 00:48:07;;;;;;;0.40;0.40;;;3.30;99.90;;;;;;5044039;28;20274;-80
2023/12/14 00:50:33;;;;;;;0.30;0.30;;;3.30;99.90;;;;;;5035398;28;20807;-80
2023/12/14 00:52:58;;;;;;;0.40;0.40;;;3.30;99.90;;;;;;5033466;28;20210;-80
2023/12/14 00:55:24;;;;;;;0.40;0.40;;;3.30;99.90;;;;;;5044812;28;20249;-80
2023/12/14 00:57:49;;;;;;;0.40;0.40;;;3.30;99.90;;;;;;5017793;28;20528;-80
2023/12/14 01:00:15;;;;;;;0.30;0.30;;;3.30;99.90;;;;;;5048507;28;20643;-80
2023/12/14 01:02:41;;;;;;;0.40;0.40;;;3.30;99.90;;;;;;5049164;28;20717;-80
2023/12/14 01:05:07;;;;;;;0.30;0.30;;;3.30;99.90;;;;;;5032895;28;20706;-80
2023/12/14 01:07:32;;;;;;;0.30;0.30;;;3.30;99.90;;;;;;5034396;28;20218;-80
2023/12/14 01:09:58;;;;;;;0.40;0.40;;;3.30;99.90;;;;;;5032831;28;20966;-80
2023/12/14 01:12:23;;;;;;;0.30;0.30;;;3.30;99.90;;;;;;5044213;28;20538;-80
2023/12/14 01:14:49;;;;;;;0.30;0.30;;;3.30;99.90;;;;;;5043618;28;20277;-80
2023/12/14 01:17:15;;;;;;;0.30;0.30;;;3.30;99.90;;;;;;5026233;28;20188;-80
2023/12/14 01:19:43;;;;;;;0.30;0.30;;;3.30;99.90;;;;;;5028835;28;20680;-80
2023/12/14 01:22:09;;;;;;;0.30;0.30;;;3.30;99.90;;;;;;5031992;28;20216;-80
2023/12/14 01:24:34;;;;;;;0.30;0.30;;;3.30;99.90;;;;;;5036294;28;20477;-80
2023/12/14 01:27:00;;;;;;;0.30;0.30;;;3.30;99.90;;;;;;5028536;28;20179;-80
2023/12/14 01:29:25;;;;;;;0.30;0.30;;;3.30;99.90;;;;;;5029033;28;20191;-80
2023/12/14 01:31:51;;;;;;;0.30;0.30;;;3.30;99.90;;;;;;5011356;28;20643;-80
2023/12/14 01:34:16;;;;;;;0.30;0.30;;;3.30;99.90;;;;;;5038030;28;20214;-80
2023/12/14 01:36:42;;;;;;;0.30;0.30;;;3.40;99.90;;;;;;5044760;28;20178;-80
2023/12/14 01:39:07;;;;;;;0.30;0.30;;;3.30;99.90;;;;;;5029181;28;20202;-80
2023/12/14 01:41:33;;;;;;;0.37;0.37;;;3.30;99.90;;;;;;5000328;28;20652;-80
2023/12/14 01:43:58;;;;;;;0.30;0.30;;;3.30;99.90;;;;;;5025141;28;20548;-80
2023/12/14 01:46:24;;;;;;;0.30;0.30;;;3.30;99.90;;;;;;5031558;28;20187;-80
2023/12/14 01:48:51;;;;;;;0.30;0.30;;;3.30;99.90;;;;;;5035255;28;20190;-80
2023/12/14 01:51:17;;;;;;;0.40;0.40;;;3.30;99.90;;;;;;5029643;28;20180;-80
2023/12/14 01:53:43;;;;;;;0.27;0.27;;;3.30;99.90;;;;;;5039369;28;20465;-80
2023/12/14 01:56:08;;;;;;;0.30;0.30;;;3.30;99.90;;;;;;4995095;28;20302;-80
2023/12/14 01:58:35;;;;;;;0.20;0.20;;;3.30;99.90;;;;;;5005843;28;20579;-80
2023/12/14 02:01:28;;;;;;;0.40;0.40;;;3.30;99.90;;;;;;5031950;28;20210;-80
2023/12/14 02:03:54;;;;;;;0.40;0.40;;;3.30;99.90;;;;;;5016558;28;20423;-80
2023/12/14 02:06:20;;;;;;;0.30;0.30;;;3.30;99.90;;;;;;5034098;28;20454;-80
2023/12/14 02:08:46;;;;;;;0.33;0.33;;;3.30;99.90;;;;;;5051648;28;20798;-80
2023/12/14 02:11:12;;;;;;;0.20;0.20;;;3.20;99.90;;;;;;5036013;28;20221;-80
2023/12/14 02:13:37;;;;;;;0.30;0.30;;;3.20;99.90;;;;;;5022163;28;20639;-80
2023/12/14 02:16:03;;;;;;;0.30;0.30;;;3.20;99.90;;;;;;5033503;28;20191;-80
2023/12/14 02:18:29;;;;;;;0.30;0.30;;;3.20;99.90;;;;;;5039695;28;20189;-79
2023/12/14 02:20:54;;;;;;;0.30;0.30;;;3.20;99.90;;;;;;5034891;28;20537;-80
2023/12/14 02:23:20;;;;;;;0.30;0.30;;;3.30;99.90;;;;;;5034711;28;20207;-80
2023/12/14 02:25:45;;;;;;;0.30;0.30;;;3.20;99.90;;;;;;5046239;28;20183;-80
2023/12/14 02:28:11;;;;;;;0.30;0.30;;;3.20;99.90;;;;;;5042072;28;20671;-80
2023/12/14 02:30:36;;;;;;;0.30;0.30;;;3.20;99.90;;;;;;5032577;28;20183;-80
2023/12/14 02:33:02;;;;;;;0.20;0.20;;;3.20;99.90;;;;;;5032425;28;20521;-80
2023/12/14 02:35:27;;;;;;;0.30;0.30;;;3.20;99.90;;;;;;5046904;28;20957;-80
2023/12/14 02:37:53;;;;;;;0.30;0.30;;;3.20;99.90;;;;;;5032259;28;20192;-80
2023/12/14 02:40:19;;;;;;;0.30;0.30;;;3.20;99.90;;;;;;5039584;28;21012;-80
2023/12/14 02:42:44;;;;;;;0.30;0.30;;;3.20;99.90;;;;;;5046552;28;20584;-80
2023/12/14 02:45:10;;;;;;;0.40;0.40;;;3.20;99.90;;;;;;5036384;28;20215;-80
2023/12/14 02:47:36;;;;;;;0.30;0.30;;;3.20;99.90;;;;;;5031998;28;20191;-80
2023/12/14 02:50:01;;;;;;;0.30;0.30;;;3.20;99.90;;;;;;5020258;28;20192;-80
2023/12/14 02:52:27;;;;;;;0.30;0.30;;;3.20;99.90;;;;;;5036987;28;20179;-80
2023/12/14 02:54:52;;;;;;;0.30;0.30;;;3.20;99.90;;;;;;5033101;28;20755;-80
2023/12/14 02:57:18;;;;;;;0.30;0.30;;;3.20;99.90;;;;;;5032289;28;20234;-78
2023/12/14 02:59:44;;;;;;;0.30;0.30;;;3.20;99.90;;;;;;5032045;28;20190;-80
2023/12/14 03:02:10;;;;;;;0.40;0.40;;;3.20;99.90;;;;;;5049413;28;20141;-80
2023/12/14 03:04:38;;;;;;;0.30;0.30;;;3.20;99.90;;;;;;5032453;28;20183;-80
2023/12/14 03:07:04;;;;;;;0.40;0.40;;;3.20;99.90;;;;;;5049964;28;20454;-80
2023/12/14 03:09:29;;;;;;;0.40;0.40;;;3.20;99.90;;;;;;5032028;28;20454;-80
2023/12/14 03:11:55;;;;;;;0.30;0.30;;;3.20;99.90;;;;;;5031875;28;20614;-80
2023/12/14 03:14:21;;;;;;;0.30;0.30;;;3.20;99.90;;;;;;5024142;28;20606;-80
2023/12/14 03:16:48;;;;;;;0.30;0.30;;;3.20;99.90;;;;;;5029975;28;20468;-80
2023/12/14 03:19:15;;;;;;;0.20;0.20;;;3.20;99.90;;;;;;5041082;28;20271;-80
2023/12/14 03:21:40;;;;;;;0.30;0.30;;;3.20;99.90;;;;;;5031803;28;20426;-80
2023/12/14 03:24:06;;;;;;;0.30;0.30;;;3.20;99.90;;;;;;5013484;28;20426;-80
2023/12/14 03:26:31;;;;;;;0.30;0.30;;;3.20;99.90;;;;;;5039616;28;20926;-78
2023/12/14 03:28:57;;;;;;;0.30;0.30;;;3.20;99.90;;;;;;5039143;28;20214;-80
2023/12/14 03:31:22;;;;;;;0.30;0.30;;;3.20;99.90;;;;;;5030723;28;20211;-80
2023/12/14 03:33:48;;;;;;;0.40;0.40;;;3.20;99.90;;;;;;5036646;28;20334;-80
2023/12/14 03:36:13;;;;;;;0.40;0.40;;;3.20;99.90;;;;;;5044450;28;20222;-78
2023/12/14 03:38:39;;;;;;;0.30;0.30;;;3.30;99.90;;;;;;5015075;28;20203;-80
2023/12/14 03:41:04;;;;;;;0.30;0.30;;;3.20;99.90;;;;;;5015081;28;20188;-80
2023/12/14 03:43:30;;;;;;;0.40;0.40;;;3.20;99.90;;;;;;5041797;28;20190;-80
2023/12/14 03:45:55;;;;;;;0.30;0.30;;;3.20;99.90;;;;;;5047912;28;20270;-80
2023/12/14 03:48:21;;;;;;;0.30;0.30;;;3.20;99.90;;;;;;5046338;28;20183;-80
2023/12/14 03:50:46;;;;;;;0.30;0.30;;;3.20;99.90;;;;;;5035266;28;20183;-80
2023/12/14 03:53:12;;;;;;;0.40;0.40;;;3.20;99.90;;;;;;5022323;28;20187;-80
2023/12/14 03:55:37;;;;;;;0.30;0.30;;;3.20;99.90;;;;;;5029979;28;20218;-80
2023/12/14 03:58:03;;;;;;;0.20;0.20;;;3.20;99.90;;;;;;5031223;28;20183;-80
2023/12/14 04:00:28;;;;;;;0.20;0.20;;;3.20;99.90;;;;;;5029497;28;20192;-80
2023/12/14 04:02:54;;;;;;;0.30;0.30;;;3.20;99.90;;;;;;5032167;28;20180;-80
2023/12/14 04:05:19;;;;;;;0.40;0.40;;;3.20;99.90;;;;;;5030958;28;20186;-80
2023/12/14 04:07:45;;;;;;;0.20;0.20;;;3.20;99.90;;;;;;5037674;28;20539;-80
2023/12/14 04:10:13;;;;;;;0.30;0.30;;;3.20;99.90;;;;;;5031750;28;20644;-80
2023/12/14 04:12:39;;;;;;;0.30;0.30;;;3.20;99.90;;;;;;5011691;28;20899;-80
2023/12/14 04:15:06;;;;;;;0.30;0.30;;;3.20;99.90;;;;;;5009955;28;20496;-80
2023/12/14 04:17:32;;;;;;;0.30;0.30;;;3.20;99.90;;;;;;5027939;28;20427;-80
2023/12/14 04:19:58;;;;;;;0.40;0.40;;;3.20;99.90;;;;;;5021514;28;21070;-80
2023/12/14 04:22:24;;;;;;;0.30;0.30;;;3.20;99.90;;;;;;5036170;28;20476;-80
2023/12/14 04:24:50;;;;;;;0.30;0.30;;;3.20;99.90;;;;;;5017894;28;20434;-80
2023/12/14 04:27:15;;;;;;;0.30;0.30;;;3.10;99.90;;;;;;5044013;28;20276;-80
2023/12/14 04:29:41;;;;;;;0.40;0.40;;;3.10;99.90;;;;;;5045985;28;20426;-80
2023/12/14 04:32:07;;;;;;;0.30;0.30;;;3.10;99.90;;;;;;5029504;28;20195;-80
2023/12/14 04:34:33;;;;;;;0.37;0.37;;;3.10;99.90;;;;;;5035909;28;20564;-80
2023/12/14 04:36:58;;;;;;;0.20;0.20;;;3.10;99.90;;;;;;5029598;28;20440;-79
2023/12/14 04:39:24;;;;;;;0.30;0.30;;;3.10;99.90;;;;;;5048639;28;20731;-80
2023/12/14 04:41:50;;;;;;;0.30;0.30;;;3.10;99.90;;;;;;5049511;28;20191;-80
2023/12/14 04:44:16;;;;;;;0.33;0.33;;;3.10;99.90;;;;;;5047483;28;20429;-80
2023/12/14 04:46:42;;;;;;;0.30;0.30;;;3.10;99.90;;;;;;5017956;28;20421;-80
2023/12/14 04:49:07;;;;;;;0.40;0.40;;;3.10;99.90;;;;;;5029105;28;20187;-80
2023/12/14 04:51:33;;;;;;;0.30;0.30;;;3.10;99.90;;;;;;5039280;28;20248;-80
2023/12/14 04:53:59;;;;;;;0.20;0.20;;;3.10;99.90;;;;;;5047138;28;20301;-80
2023/12/14 04:56:24;;;;;;;0.30;0.30;;;3.10;99.90;;;;;;5049928;28;20190;-80
2023/12/14 04:58:50;;;;;;;0.30;0.30;;;3.10;99.90;;;;;;5038613;28;20180;-80
2023/12/14 05:01:15;;;;;;;0.40;0.40;;;3.10;99.90;;;;;;5031291;28;20275;-80
2023/12/14 05:03:41;;;;;;;0.30;0.30;;;3.10;99.90;;;;;;5032423;28;20547;-80
2023/12/14 05:06:07;;;;;;;0.40;0.40;;;3.10;99.90;;;;;;5050877;28;20175;-80
2023/12/14 05:08:32;;;;;;;0.30;0.30;;;3.00;99.90;;;;;;5009062;28;20187;-80
2023/12/14 05:10:58;;;;;;;0.20;0.20;;;3.10;99.90;;;;;;5033463;28;20945;-80
2023/12/14 05:13:24;;;;;;;0.30;0.30;;;3.10;99.90;;;;;;5029208;28;20658;-80
2023/12/14 05:15:51;;;;;;;0.30;0.30;;;3.10;99.90;;;;;;5030528;28;20443;-80
2023/12/14 05:18:17;;;;;;;0.30;0.30;;;3.10;99.90;;;;;;5030394;28;20183;-80
2023/12/14 05:20:44;;;;;;;0.30;0.30;;;3.10;99.90;;;;;;5033202;28;20468;-80
2023/12/14 05:23:10;;;;;;;0.30;0.30;;;3.10;99.90;;;;;;5039087;28;20454;-80
2023/12/14 05:25:35;;;;;;;0.30;0.30;;;3.10;99.90;;;;;;5013712;28;20426;-80
2023/12/14 05:28:01;;;;;;;0.20;0.20;;;3.10;99.90;;;;;;5048871;28;20277;-79
2023/12/14 05:30:26;;;;;;;0.30;0.30;;;3.10;99.90;;;;;;5029929;28;20274;-80
2023/12/14 05:32:52;;;;;;;0.30;0.30;;;3.10;99.90;;;;;;5029071;28;20205;-80
2023/12/14 05:35:17;;;;;;;0.30;0.30;;;3.00;99.90;;;;;;5011525;28;20218;-80
2023/12/14 05:37:43;;;;;;;0.20;0.20;;;3.10;99.90;;;;;;5038410;28;20195;-80
2023/12/14 05:40:09;;;;;;;0.30;0.30;;;3.10;99.90;;;;;;5021563;28;20196;-80
2023/12/14 05:42:35;;;;;;;0.40;0.40;;;3.10;99.90;;;;;;5049922;28;20194;-80
2023/12/14 05:45:00;;;;;;;0.20;0.20;;;3.10;99.90;;;;;;5039048;28;20927;-80
2023/12/14 05:47:27;;;;;;;0.30;0.30;;;3.10;99.90;;;;;;5041652;28;20552;-80
2023/12/14 05:49:53;;;;;;;0.20;0.20;;;3.10;99.90;;;;;;5036300;28;20293;-80
2023/12/14 05:52:18;;;;;;;0.40;0.40;;;3.10;99.90;;;;;;5030832;28;20808;-80
2023/12/14 05:54:44;;;;;;;0.30;0.30;;;3.00;99.90;;;;;;5037336;28;20683;-79
2023/12/14 05:57:12;;;;;;;0.40;0.40;;;3.10;99.90;;;;;;5034315;28;20601;-80
2023/12/14 05:59:38;;;;;;;0.30;0.30;;;3.00;99.90;;;;;;5028834;28;20219;-80
2023/12/14 06:02:04;;;;;;;0.33;0.33;;;3.00;99.90;;;;;;5024594;28;20481;-79
2023/12/14 06:04:30;;;;;;;0.30;0.30;;;3.10;99.90;;;;;;5030851;28;20416;-80
2023/12/14 06:06:56;;;;;;;0.30;0.30;;;3.10;99.90;;;;;;5031064;28;20422;-80
2023/12/14 06:09:26;;;;;;;0.30;0.30;;;3.10;99.90;;;;;;5026919;28;20198;-80
2023/12/14 06:11:52;;;;;;;0.30;0.30;;;3.10;99.90;;;;;;5022375;28;20442;-80
2023/12/14 06:14:17;;;;;;;0.30;0.30;;;3.10;99.90;;;;;;5029178;28;20915;-79
2023/12/14 06:16:45;;;;;;;0.30;0.30;;;3.10;99.90;;;;;;5025084;28;20476;-79
2023/12/14 06:19:11;;;;;;;0.30;0.30;;;3.10;99.90;;;;;;5016129;28;20259;-79
2023/12/14 06:21:37;;;;;;;0.30;0.30;;;3.10;99.90;;;;;;5033053;28;20473;-79
2023/12/14 06:24:02;;;;;;;0.30;0.30;;;3.10;99.90;;;;;;5041936;28;20194;-79
2023/12/14 06:26:28;;;;;;;0.30;0.30;;;3.10;99.90;;;;;;5030456;28;20684;-79
2023/12/14 06:28:53;;;;;;;0.30;0.30;;;3.10;99.90;;;;;;5029717;28;20349;-79
2023/12/14 06:31:21;;;;;;;0.20;0.20;;;3.10;99.90;;;;;;5028401;28;20172;-79
2023/12/14 06:33:48;;;;;;;0.30;0.30;;;3.10;99.90;;;;;;5028413;28;20199;-79
2023/12/14 06:36:16;;;;;;;0.30;0.30;;;3.20;99.90;;;;;;5023668;28;20736;-79
2023/12/14 06:38:42;;;;;;;0.40;0.40;;;3.10;99.90;;;;;;5019762;28;20413;-79
2023/12/14 06:41:08;;;;;;;0.30;0.30;;;3.10;99.90;;;;;;5025159;28;20924;-79
2023/12/14 06:43:34;;;;;;;0.30;0.30;;;3.10;99.90;;;;;;5034687;28;20640;-79
2023/12/14 06:46:00;;;;;;;0.40;0.40;;;3.10;99.90;;;;;;5025886;28;20432;-79
2023/12/14 06:48:25;;;;;;;0.30;0.30;;;3.10;99.90;;;;;;5037151;28;20179;-79
2023/12/14 06:50:51;;;;;;;0.30;0.30;;;3.10;99.90;;;;;;5040061;28;20206;-79
2023/12/14 06:53:16;;;;;;;0.30;0.30;;;3.00;99.90;;;;;;5033775;28;20175;-79
2023/12/14 06:55:42;;;;;;;0.30;0.30;;;3.00;99.90;;;;;;5040177;28;20269;-79
2023/12/14 06:58:11;;;;;;;0.30;0.30;;;3.00;99.90;;;;;;5038860;28;20273;-79
2023/12/14 07:00:37;;;;;;;0.40;0.40;;;3.00;99.90;;;;;;5034378;28;20453;-79
2023/12/14 07:03:03;;;;;;;0.30;0.30;;;3.00;99.90;;;;;;5013627;28;20499;-79
2023/12/14 07:05:29;;;;;;;0.30;0.30;;;3.00;99.90;;;;;;5025365;28;20445;-79
2023/12/14 07:07:56;;;;;;;0.30;0.30;;;2.90;99.90;;;;;;5030586;28;20975;-79
2023/12/14 07:10:22;;;;;;;0.30;0.30;;;3.00;99.90;;;;;;5031366;28;20518;-79
2023/12/14 07:12:47;;;;;;;0.30;0.30;;;2.90;99.90;;;;;;5027731;28;20497;-79
2023/12/14 07:15:13;;;;;;;0.30;0.30;;;3.00;99.90;;;;;;5039605;28;20230;-79
2023/12/14 07:17:38;;;;;;;0.30;0.30;;;2.90;99.90;;;;;;5034131;28;20183;-78
2023/12/14 07:20:06;;;;;;;0.30;0.30;;;3.00;99.90;;;;;;5035974;28;20665;-78
2023/12/14 07:22:31;;;;;;;0.37;0.37;;;3.00;99.90;;;;;;5015472;28;20181;-79
2023/12/14 07:24:57;;;;;;;0.30;0.30;;;2.90;99.90;;;;;;5014806;28;20460;-79
2023/12/14 07:27:22;;;;;;;0.27;0.27;;;3.00;99.90;;;;;;5029301;28;20184;-78
2023/12/14 07:29:48;;;;;;;0.30;0.30;;;3.00;99.90;;;;;;5036774;28;20195;-79
2023/12/14 07:32:13;;;;;;;0.30;0.30;;;3.00;99.90;;;;;;5037564;28;20188;-78
2023/12/14 07:34:39;;;;;;;0.30;0.30;;;3.00;99.90;;;;;;5049149;28;20713;-78
2023/12/14 07:37:05;;;;;;;0.30;0.30;;;3.10;99.90;;;;;;5030957;28;20187;-79
2023/12/14 07:39:31;;;;;;;0.30;0.30;;;3.10;99.90;;;;;;5030392;28;20196;-78
2023/12/14 07:41:57;;;;;;;0.30;0.30;;;3.00;99.90;;;;;;5043173;28;20419;-78
2023/12/14 07:44:24;;;;;;;0.30;0.30;;;3.00;99.90;;;;;;5041525;28;20649;-79
2023/12/14 07:46:51;;;;;;;0.30;0.30;;;3.10;99.90;;;;;;5036264;28;20219;-77
2023/12/14 07:49:20;;;;;;;0.30;0.30;;;3.00;99.90;;;;;;5036763;28;20438;-78
2023/12/14 07:51:46;;;;;;;0.30;0.30;;;3.00;99.90;;;;;;5010439;28;21009;-78
2023/12/14 07:54:11;;;;;;;0.40;0.40;;;3.00;99.90;;;;;;5040307;28;20469;-78
2023/12/14 07:56:37;;;;;;;0.30;0.30;;;3.10;99.90;;;;;;5026955;28;20965;-78
2023/12/14 07:59:06;;;;;;;0.30;0.30;;;3.10;99.90;;;;;;5007079;28;20223;-78
2023/12/14 08:01:32;;;;;;;0.30;0.30;;;3.10;99.90;;;;;;5019513;28;20607;-78
2023/12/14 08:03:57;;;;;;;0.30;0.30;;;3.20;99.90;;;;;;5004965;28;20951;-78
2023/12/14 08:06:23;;;;;;;0.30;0.30;;;3.10;99.90;;;;;;5027829;28;20686;-78
2023/12/14 08:08:48;;;;;;;0.30;0.30;;;3.20;99.90;;;;;;5024095;28;20191;-78
2023/12/14 08:11:14;;;;;;;0.30;0.30;;;3.20;99.90;;;;;;5025906;28;20188;-78
2023/12/14 08:13:40;;;;;;;0.30;0.30;;;3.20;99.90;;;;;;5030736;28;20198;-78
2023/12/14 08:16:06;;;;;;;0.30;0.30;;;3.20;99.90;;;;;;5018705;28;20213;-79
2023/12/14 08:18:33;;;;;;;0.20;0.20;;;3.30;99.90;;;;;;5030319;28;21050;-78
2023/12/14 08:20:59;;;;;;;0.30;0.30;;;3.30;99.90;;;;;;5020087;28;20529;-78
2023/12/14 08:23:27;;;;;;;0.30;0.30;;;3.20;99.90;;;;;;5012955;28;20179;-78
2023/12/14 08:25:56;;;;;;;0.20;0.20;;;3.30;99.90;;;;;;5033930;28;20191;-78
2023/12/14 08:28:22;;;;;;;0.30;0.30;;;3.30;99.90;;;;;;5026974;28;20528;-79
2023/12/14 08:30:48;;;;;;;0.20;0.20;;;3.30;99.90;;;;;;5018914;28;20466;-78
2023/12/14 08:33:13;;;;;;;0.30;0.30;;;3.30;99.90;;;;;;5018364;28;20458;-78
2023/12/14 08:35:39;;;;;;;0.30;0.30;;;3.30;99.90;;;;;;5030033;28;20259;-78
2023/12/14 08:38:04;;;;;;;0.30;0.30;;;3.30;99.90;;;;;;5021933;28;20192;-78
2023/12/14 08:40:30;;;;;;;0.30;0.30;;;3.30;99.90;;;;;;5006335;28;20209;-78
2023/12/14 08:42:57;;;;;;;0.40;0.40;;;3.30;99.90;;;;;;5029023;28;20674;-78
2023/12/14 08:45:22;;;;;;;0.30;0.30;;;3.30;99.90;;;;;;5020396;28;20184;-78
2023/12/14 08:47:48;;;;;;;0.30;0.30;;;3.30;99.90;;;;;;5028346;28;20430;-78
2023/12/14 08:50:13;;;;;;;0.30;0.30;;;3.30;99.90;;;;;;5022897;28;20267;-78
2023/12/14 08:52:39;;;;;;;0.30;0.30;;;3.30;99.90;;;;;;5030538;28;20201;-78
2023/12/14 08:55:05;;;;;;;0.30;0.30;;;3.40;99.90;;;;;;5040009;28;20505;-78
2023/12/14 08:57:30;;;;;;;0.30;0.30;;;3.40;99.90;;;;;;5045182;28;20175;-78
2023/12/14 08:59:56;;;;;;;0.20;0.20;;;3.40;99.90;;;;;;5037964;28;20442;-78
2023/12/14 09:02:22;;;;;;;0.30;0.30;;;3.40;99.90;;;;;;5040111;28;20175;-78
2023/12/14 09:04:48;;;;;;;0.30;0.30;;;3.40;99.90;;;;;;5028203;28;20274;-78
2023/12/14 09:07:14;;;;;;;0.30;0.30;;;3.40;99.90;;;;;;5028840;28;20214;-78
2023/12/14 09:09:39;;;;;;;0.30;0.30;;;3.40;99.90;;;;;;5027605;28;20938;-78
2023/12/14 09:12:05;;;;;;;0.30;0.30;;;3.50;99.90;;;;;;5030310;28;20250;-78
2023/12/14 09:14:31;;;;;;;0.30;0.30;;;3.40;99.90;;;;;;5028991;28;20746;-78
2023/12/14 09:16:56;;;;;;;0.40;0.40;;;3.50;99.90;;;;;;5027479;28;20187;-78
2023/12/14 09:19:22;;;;;;;0.30;0.30;;;3.50;99.90;;;;;;5029458;28;21049;-78
2023/12/14 09:21:49;;;;;;;0.30;0.30;;;3.50;99.90;;;;;;5010816;28;20574;-78
2023/12/14 09:24:14;;;;;;;0.23;0.23;;;3.50;99.90;;;;;;5027489;28;20396;-78
2023/12/14 09:26:40;;;;;;;0.30;0.30;;;3.50;99.90;;;;;;5030558;28;20433;-79
2023/12/14 09:29:05;;;;;;;0.37;0.37;;;3.50;99.90;;;;;;5029384;28;20183;-78
2023/12/14 09:31:32;;;;;;;0.30;0.30;;;3.50;99.90;;;;;;5021048;28;20171;-78
2023/12/14 09:33:58;;;;;;;0.30;0.30;;;3.50;99.90;;;;;;5031518;28;20484;-79
2023/12/14 09:36:24;;;;;;;0.30;0.30;;;3.50;99.90;;;;;;5004664;28;20731;-78
2023/12/14 09:38:49;;;;;;;0.30;0.30;;;3.50;99.90;;;;;;5025821;28;20188;-79
2023/12/14 09:41:14;;;;;;;0.30;0.30;;;3.50;99.90;;;;;;5012429;28;20446;-78
2023/12/14 09:43:40;;;;;;;0.20;0.20;;;3.50;99.90;;;;;;5025520;28;20215;-78
2023/12/14 09:46:07;;;;;;;0.30;0.30;;;3.50;99.90;;;;;;5019938;28;20319;-79
2023/12/14 09:48:33;;;;;;;0.30;0.30;;;3.50;99.90;;;;;;5000444;28;20183;-79
2023/12/14 09:50:59;;;;;;;0.30;0.30;;;3.60;99.90;;;;;;5014439;28;20587;-79
2023/12/14 09:53:24;;;;;;;0.30;0.30;;;3.60;99.90;;;;;;5026935;28;20536;-78
2023/12/14 09:55:50;;;;;;;0.30;0.30;;;3.60;99.90;;;;;;5041974;28;20302;-78
2023/12/14 09:58:16;;;;;;;0.30;0.30;;;3.60;99.90;;;;;;5035615;28;20203;-78
2023/12/14 10:00:42;;;;;;;0.30;0.30;;;3.60;99.90;;;;;;5015294;28;20190;-78
2023/12/14 10:03:27;;;;;;;0.20;0.20;;;3.60;99.90;;;;;;5028431;28;20198;-78
2023/12/14 10:05:53;;;;;;;0.30;0.30;;;3.70;99.90;;;;;;5032816;28;20453;-78
2023/12/14 10:08:19;;;;;;;0.30;0.30;;;3.60;99.90;;;;;;5038625;28;20433;-78
2023/12/14 10:10:48;;;;;;;0.30;0.30;;;3.50;99.90;;;;;;5010975;28;20438;-78
2023/12/14 10:13:14;;;;;;;0.30;0.30;;;3.50;99.90;;;;;;5033986;28;20430;-78
2023/12/14 10:15:46;;;;;;;0.30;0.30;;;3.50;99.90;;;;;;5035739;28;20844;-79
2023/12/14 10:18:12;;;;;;;0.30;0.30;;;3.60;99.90;;;;;;5028443;28;20481;-79
2023/12/14 10:20:38;;;;;;;0.30;0.30;;;3.60;99.90;;;;;;5013337;28;20493;-80
2023/12/14 10:23:05;;;;;;;0.30;0.30;;;3.50;99.90;;;;;;5014428;28;20480;-79
2023/12/14 10:25:31;;;;;;;0.30;0.30;;;3.50;99.90;;;;;;5036291;28;20194;-79
2023/12/14 10:27:57;;;;;;;0.30;0.30;;;3.50;99.90;;;;;;5028829;28;20783;-79
2023/12/14 10:30:23;;;;;;;0.30;0.30;;;3.50;99.90;;;;;;5025785;28;20435;-79
2023/12/14 10:32:50;;;;;;;0.30;0.30;;;3.60;99.90;;;;;;5034894;28;20660;-79
2023/12/14 10:35:16;;;;;;;0.30;0.30;;;3.60;99.90;;;;;;5038279;28;20218;-79
2023/12/14 10:37:42;;;;;;;0.30;0.30;;;3.50;99.90;;;;;;5027990;28;20421;-79
2023/12/14 10:40:13;;;;;;;0.30;0.30;;;3.60;99.90;;;;;;5033479;28;20426;-79
2023/12/14 10:42:43;;;;;;;0.20;0.20;;;3.60;99.90;;;;;;5017428;28;20513;-79
2023/12/14 10:45:12;;;;;;;0.30;0.30;;;3.60;99.90;;;;;;5019025;28;20429;-79
2023/12/14 10:47:43;;;;;;;0.30;0.30;;;3.60;99.90;;;;;;5036056;28;20433;-79
2023/12/14 10:50:11;;;;;;;0.30;0.30;;;3.60;99.90;;;;;;5044764;28;20425;-79
2023/12/14 10:52:40;;;;;;;0.30;0.30;;;3.70;99.90;;;;;;5046703;28;20420;-80
2023/12/14 10:55:22;;;;;;;0.30;0.30;;;3.60;99.90;;;;;;5049412;28;20473;-79
2023/12/14 10:57:48;;;;;;;0.30;0.30;;;3.70;99.90;;;;;;5044207;28;20424;-79
2023/12/14 11:00:17;;;;;;;0.20;0.20;;;3.70;99.90;;;;;;5034307;28;20442;-79
2023/12/14 11:02:46;;;;;;;0.20;0.20;;;3.70;99.90;;;;;;5032602;28;20193;-79
2023/12/14 11:05:15;;;;;;;0.30;0.30;;;3.70;99.90;;;;;;5033705;28;20430;-79
2023/12/14 11:07:53;;;;;;;0.30;0.30;;;3.70;99.90;;;;;;5036231;28;20433;-79
2023/12/14 11:11:11;;;;;;;0.30;0.30;;;3.70;99.90;;;;;;5038752;28;20472;-80
2023/12/14 11:13:39;;;;;;;0.30;0.30;;;3.70;99.90;;;;;;5029004;28;20418;-79
2023/12/14 11:16:04;;;;;;;0.30;0.30;;;3.60;99.90;;;;;;5044754;28;20452;-79
2023/12/14 11:18:31;;;;;;;0.30;0.30;;;3.60;99.90;;;;;;5025593;28;20776;-79
2023/12/14 11:20:59;;;;;;;0.20;0.20;;;3.60;99.90;;;;;;5051229;28;20252;-80
2023/12/14 11:23:24;;;;;;;0.30;0.30;;;3.60;99.90;;;;;;5025468;28;20446;-80
2023/12/14 11:25:58;;;;;;;0.30;0.30;;;3.60;99.90;;;;;;5031389;28;20784;-80
2023/12/14 11:28:24;;;;;;;0.30;0.30;;;3.70;99.90;;;;;;5034093;28;20277;-80
2023/12/14 11:30:50;;;;;;;0.30;0.30;;;3.70;99.90;;;;;;5052461;28;20853;-79
2023/12/14 11:33:16;;;;;;;0.20;0.20;;;3.70;99.90;;;;;;5045018;28;20550;-80
2023/12/14 11:35:42;;;;;;;0.30;0.30;;;3.70;99.90;;;;;;5015340;28;20211;-80
2023/12/14 11:38:12;;;;;;;0.30;0.30;;;3.60;99.90;;;;;;5027817;28;20526;-80
2023/12/14 11:40:50;;;;;;;0.30;0.30;;;3.60;99.90;;;;;;5028411;28;20442;-80
2023/12/14 11:43:16;;;;;;;0.30;0.30;;;3.60;99.90;;;;;;5019055;28;20463;-80
2023/12/14 11:45:42;;;;;;;0.30;0.30;;;3.60;99.90;;;;;;5029273;28;21064;-80
2023/12/14 11:48:11;;;;;;;0.30;0.30;;;3.70;99.90;;;;;;5028613;28;20422;-80
2023/12/14 11:50:38;;;;;;;0.30;0.30;;;3.70;99.90;;;;;;5021507;28;20859;-80
2023/12/14 11:53:04;;;;;;;0.30;0.30;;;3.70;99.90;;;;;;5000459;28;20432;-80
2023/12/14 11:55:31;;;;;;;0.30;0.30;;;3.80;99.90;;;;;;4994483;28;21039;-80
2023/12/14 11:57:58;;;;;;;0.30;0.30;;;3.80;99.90;;;;;;5020385;28;20535;-80
2023/12/14 12:00:26;;;;;;;0.30;0.30;;;3.80;99.90;;;;;;5029649;28;20450;-80
2023/12/14 12:02:51;;;;;;;0.30;0.30;;;3.80;99.90;;;;;;5026455;28;20419;-80
2023/12/14 12:05:21;;;;;;;0.20;0.20;;;3.80;99.90;;;;;;5014824;28;20442;-81
2023/12/14 12:07:46;;;;;;;0.30;0.30;;;3.90;99.90;;;;;;5029497;28;20183;-80
2023/12/14 12:10:12;;;;;;;0.30;0.30;;;4.00;99.90;;;;;;5012966;28;20442;-80
2023/12/14 12:12:37;;;;;;;0.30;0.30;;;4.10;99.90;;;;;;5027342;28;20712;-80
2023/12/14 12:15:05;;;;;;;0.20;0.20;;;4.00;99.90;;;;;;5029099;28;20218;-80
2023/12/14 12:17:37;;;;;;;0.30;0.30;;;4.00;99.90;;;;;;5034873;28;20182;-80
2023/12/14 12:20:06;;;;;;;0.30;0.30;;;4.20;99.90;;;;;;5031364;28;20529;-80
2023/12/14 12:22:32;;;;;;;0.30;0.30;;;4.20;99.90;;;;;;5026704;28;20510;-80
2023/12/14 12:24:58;;;;;;;0.20;0.20;;;4.30;99.90;;;;;;5029881;28;20537;-80
2023/12/14 12:27:23;;;;;;;0.30;0.30;;;4.20;99.90;;;;;;5019315;28;20489;-80
2023/12/14 12:29:53;;;;;;;0.20;0.20;;;4.30;99.90;;;;;;5027800;28;20840;-80
2023/12/14 12:32:18;;;;;;;0.30;0.30;;;4.30;99.90;;;;;;5014725;28;20179;-80
2023/12/14 12:34:44;;;;;;;0.20;0.20;;;4.30;99.90;;;;;;5039380;28;20664;-80
2023/12/14 12:37:09;;;;;;;0.30;0.30;;;4.30;99.90;;;;;;5031449;28;20254;-80
2023/12/14 12:39:35;;;;;;;0.30;0.30;;;4.10;99.90;;;;;;5029193;28;20241;-79
2023/12/14 12:42:00;;;;;;;0.20;0.20;;;4.20;99.90;;;;;;5037817;28;20191;-80
2023/12/14 12:44:26;;;;;;;0.30;0.30;;;4.20;99.90;;;;;;5037249;28;20180;-80
2023/12/14 12:46:56;;;;;;;0.30;0.30;;;4.20;99.90;;;;;;5031260;28;20190;-80
2023/12/14 12:49:22;;;;;;;0.30;0.30;;;4.10;99.90;;;;;;5014736;28;20889;-80
2023/12/14 12:51:47;;;;;;;0.20;0.20;;;4.00;99.90;;;;;;5030059;28;20518;-80
2023/12/14 12:54:13;;;;;;;0.20;0.20;;;4.00;99.90;;;;;;5028677;28;20211;-79